createdAt,value
2018-09-30T00:02:04.377Z,6.20
2018-09-30T00:04:34.508Z,6.10
2018-09-30T00:07:03.641Z,6.00
2018-09-30T00:09:32.935Z,6.00
2018-09-30T00:12:03.221Z,5.80
2018-09-30T00:14:33.010Z,5.80
2018-09-30T00:17:01.841Z,5.70
2018-09-30T00:19:30.710Z,5.60
2018-09-30T00:22:00.961Z,5.50
2018-09-30T00:26:38.023Z,5.50
2018-09-30T00:29:07.168Z,5.50
2018-09-30T00:31:36.645Z,5.40
2018-09-30T00:34:11.680Z,5.40
2018-09-30T00:36:40.514Z,5.30
2018-09-30T00:39:09.401Z,5.20
2018-09-30T00:41:39.000Z,5.10
2018-09-30T00:44:07.915Z,5.00
2018-09-30T00:46:37.588Z,5.00
2018-09-30T00:49:06.986Z,5.00
2018-09-30T00:51:36.118Z,5.00
2018-09-30T00:54:13.850Z,5.00
2018-09-30T00:56:43.140Z,5.10
2018-09-30T00:59:12.615Z,5.00
2018-09-30T01:01:41.991Z,4.70
2018-09-30T01:04:11.722Z,4.60
2018-09-30T01:06:40.538Z,4.60
2018-09-30T01:09:15.093Z,4.60
2018-09-30T01:11:44.494Z,4.70
2018-09-30T01:14:13.448Z,4.70
2018-09-30T01:16:42.329Z,4.70
2018-09-30T01:19:11.195Z,4.80
2018-09-30T01:21:40.063Z,4.80
2018-09-30T01:24:10.703Z,4.80
2018-09-30T01:26:39.610Z,4.80
2018-09-30T01:29:08.419Z,4.80
2018-09-30T01:31:37.237Z,4.90
2018-09-30T01:34:06.047Z,4.90
2018-09-30T01:36:35.476Z,4.90
2018-09-30T01:39:05.620Z,4.80
2018-09-30T01:41:34.409Z,4.80
2018-09-30T01:44:03.277Z,4.80
2018-09-30T01:46:32.062Z,4.80
2018-09-30T01:49:00.871Z,4.80
2018-09-30T01:51:29.672Z,4.70
2018-09-30T01:53:58.917Z,4.60
2018-09-30T01:56:27.743Z,4.60
2018-09-30T01:58:56.561Z,4.40
2018-09-30T02:01:25.445Z,4.40
2018-09-30T02:03:54.300Z,4.30
2018-09-30T02:06:23.177Z,4.30
2018-09-30T02:08:51.967Z,4.40
2018-09-30T02:11:21.736Z,4.30
2018-09-30T02:13:50.562Z,4.30
2018-09-30T02:16:19.454Z,4.30
2018-09-30T02:18:51.213Z,4.30
2018-09-30T02:21:20.217Z,4.30
2018-09-30T02:23:49.816Z,4.30
2018-09-30T02:26:18.942Z,4.30
2018-09-30T02:28:47.766Z,4.20
2018-09-30T02:31:16.591Z,4.30
2018-09-30T02:33:45.454Z,4.30
2018-09-30T02:36:25.250Z,4.30
2018-09-30T02:38:54.077Z,4.30
2018-09-30T02:41:22.861Z,4.40
2018-09-30T02:43:51.943Z,4.40
2018-09-30T02:46:20.866Z,4.40
2018-09-30T02:48:49.646Z,4.50
2018-09-30T02:51:19.690Z,4.50
2018-09-30T02:53:48.442Z,4.60
2018-09-30T02:56:17.379Z,4.90
2018-09-30T02:58:46.595Z,5.10
2018-09-30T03:01:15.364Z,4.90
2018-09-30T03:03:44.119Z,4.90
2018-09-30T03:06:18.622Z,4.80
2018-09-30T03:08:52.486Z,4.80
2018-09-30T03:11:21.804Z,4.70
2018-09-30T03:13:50.689Z,4.70
2018-09-30T03:16:19.484Z,4.50
2018-09-30T03:18:49.282Z,4.40
2018-09-30T03:21:18.049Z,4.30
2018-09-30T03:23:46.813Z,4.10
2018-09-30T03:26:15.727Z,4.00
2018-09-30T03:28:44.517Z,4.00
2018-09-30T03:31:13.288Z,3.90
2018-09-30T03:33:42.136Z,3.90
2018-09-30T03:36:11.113Z,3.90
2018-09-30T03:38:40.542Z,3.90
2018-09-30T03:41:09.484Z,3.90
2018-09-30T03:43:38.697Z,3.80
2018-09-30T03:46:07.467Z,3.70
2018-09-30T03:48:36.394Z,3.80
2018-09-30T03:51:05.217Z,3.80
2018-09-30T03:53:34.047Z,3.80
2018-09-30T03:56:02.862Z,3.80
2018-09-30T03:58:31.606Z,3.80
2018-09-30T04:01:00.520Z,3.90
2018-09-30T04:03:30.295Z,4.00
2018-09-30T04:05:59.147Z,4.10
2018-09-30T04:08:36.053Z,4.30
2018-09-30T04:11:04.929Z,4.30
2018-09-30T04:13:33.701Z,4.20
2018-09-30T04:16:03.531Z,4.20
2018-09-30T04:18:32.562Z,4.10
2018-09-30T04:21:01.327Z,4.10
2018-09-30T04:23:30.225Z,4.20
2018-09-30T04:26:00.163Z,4.10
2018-09-30T04:28:29.014Z,4.10
2018-09-30T04:30:57.813Z,4.00
2018-09-30T04:33:26.588Z,4.00
2018-09-30T04:35:55.374Z,3.90
2018-09-30T04:38:24.144Z,3.90
2018-09-30T04:40:52.946Z,3.80
2018-09-30T04:43:21.933Z,3.70
2018-09-30T04:45:50.741Z,3.70
2018-09-30T04:48:20.391Z,3.70
2018-09-30T04:50:49.182Z,3.50
2018-09-30T04:53:17.980Z,3.50
2018-09-30T04:55:46.781Z,3.50
2018-09-30T04:58:15.610Z,3.40
2018-09-30T05:00:44.447Z,3.30
2018-09-30T05:03:13.450Z,3.30
2018-09-30T05:05:42.251Z,3.20
2018-09-30T05:08:11.333Z,3.20
2018-09-30T05:10:40.166Z,3.20
2018-09-30T05:13:09.435Z,3.10
2018-09-30T05:15:38.520Z,3.10
2018-09-30T05:18:07.328Z,3.10
2018-09-30T05:20:36.144Z,3.00
2018-09-30T05:23:05.902Z,3.00
2018-09-30T05:25:34.736Z,3.00
2018-09-30T05:28:05.068Z,3.10
2018-09-30T05:30:34.379Z,3.10
2018-09-30T05:33:03.155Z,3.10
2018-09-30T05:35:32.011Z,3.20
2018-09-30T05:38:00.888Z,3.10
2018-09-30T05:40:29.694Z,3.20
2018-09-30T05:42:58.520Z,3.10
2018-09-30T05:45:28.161Z,3.10
2018-09-30T05:47:57.628Z,3.10
2018-09-30T05:50:27.009Z,3.10
2018-09-30T05:52:55.810Z,3.10
2018-09-30T05:55:24.614Z,3.10
2018-09-30T05:57:54.236Z,3.20
2018-09-30T06:00:23.012Z,3.30
2018-09-30T06:02:51.802Z,3.40
2018-09-30T06:05:21.923Z,3.50
2018-09-30T06:07:51.350Z,3.60
2018-09-30T06:10:20.350Z,3.70
2018-09-30T06:12:49.378Z,3.70
2018-09-30T06:15:18.541Z,3.80
2018-09-30T06:17:48.178Z,4.00
2018-09-30T06:20:16.999Z,4.10
2018-09-30T06:22:45.794Z,4.10
2018-09-30T06:25:16.759Z,4.30
2018-09-30T06:27:45.599Z,4.40
2018-09-30T06:30:14.358Z,4.50
2018-09-30T06:32:45.702Z,4.60
2018-09-30T06:35:17.261Z,4.60
2018-09-30T06:37:46.243Z,4.70
2018-09-30T06:40:14.992Z,4.70
2018-09-30T06:42:45.057Z,4.80
2018-09-30T06:45:18.767Z,4.90
2018-09-30T06:47:47.674Z,5.10
2018-09-30T06:50:18.288Z,5.20
2018-09-30T06:52:48.093Z,5.40
2018-09-30T06:55:17.463Z,5.40
2018-09-30T06:57:46.211Z,5.60
2018-09-30T07:00:18.043Z,5.70
2018-09-30T07:02:52.653Z,5.70
2018-09-30T07:05:22.435Z,5.80
2018-09-30T07:07:51.678Z,6.00
2018-09-30T07:10:20.582Z,6.30
2018-09-30T07:12:49.552Z,6.40
2018-09-30T07:15:18.445Z,6.50
2018-09-30T07:17:47.234Z,6.60
2018-09-30T07:20:16.151Z,6.70
2018-09-30T07:22:45.194Z,6.70
2018-09-30T07:25:14.709Z,6.80
2018-09-30T07:27:43.515Z,6.90
2018-09-30T07:30:14.279Z,7.10
2018-09-30T07:32:43.368Z,7.20
2018-09-30T07:35:13.187Z,7.30
2018-09-30T07:37:45.022Z,7.40
2018-09-30T07:40:14.182Z,7.50
2018-09-30T07:42:44.085Z,7.60
2018-09-30T07:45:13.158Z,7.90
2018-09-30T07:47:43.350Z,8.20
2018-09-30T07:50:12.598Z,8.40
2018-09-30T07:52:43.052Z,8.60
2018-09-30T07:55:12.511Z,8.90
2018-09-30T07:57:41.398Z,9.10
2018-09-30T08:00:14.558Z,9.30
2018-09-30T08:02:43.473Z,9.60
2018-09-30T08:05:13.236Z,9.80
2018-09-30T08:07:44.227Z,10.00
2018-09-30T08:10:14.998Z,10.40
2018-09-30T08:12:44.029Z,10.90
2018-09-30T08:15:13.048Z,11.40
2018-09-30T08:17:42.430Z,11.60
2018-09-30T08:20:11.824Z,11.90
2018-09-30T08:22:41.477Z,12.00
2018-09-30T08:25:10.640Z,12.20
2018-09-30T08:27:40.182Z,12.30
2018-09-30T08:30:10.275Z,12.50
2018-09-30T08:32:39.939Z,12.60
2018-09-30T08:35:08.937Z,12.90
2018-09-30T08:37:43.701Z,13.10
2018-09-30T08:40:12.615Z,13.00
2018-09-30T08:42:41.667Z,13.20
2018-09-30T08:45:12.545Z,13.60
2018-09-30T08:47:41.683Z,13.80
2018-09-30T08:50:12.953Z,14.10
2018-09-30T08:52:44.464Z,14.10
2018-09-30T08:55:14.012Z,14.00
2018-09-30T08:57:43.168Z,14.30
2018-09-30T09:00:13.170Z,14.50
2018-09-30T09:02:45.037Z,14.60
2018-09-30T09:05:15.301Z,14.80
2018-09-30T09:07:44.851Z,14.70
2018-09-30T09:10:15.309Z,14.40
2018-09-30T09:12:44.566Z,14.50
2018-09-30T09:15:14.319Z,14.60
2018-09-30T09:17:43.259Z,14.80
2018-09-30T09:20:12.161Z,15.00
2018-09-30T09:22:41.641Z,15.20
2018-09-30T09:25:10.667Z,15.30
2018-09-30T09:27:39.683Z,15.50
2018-09-30T09:30:11.557Z,15.80
2018-09-30T09:32:41.382Z,16.10
2018-09-30T09:35:10.763Z,16.20
2018-09-30T09:37:39.774Z,16.30
2018-09-30T09:40:11.271Z,16.40
2018-09-30T09:42:40.326Z,16.80
2018-09-30T09:45:20.928Z,16.90
2018-09-30T09:47:50.114Z,16.90
2018-09-30T09:50:20.191Z,16.90
2018-09-30T09:52:49.201Z,17.00
2018-09-30T09:55:19.750Z,17.10
2018-09-30T09:57:49.785Z,17.20
2018-09-30T10:00:24.825Z,17.20
2018-09-30T10:02:54.243Z,16.90
2018-09-30T10:05:26.145Z,17.00
2018-09-30T10:07:55.693Z,17.10
2018-09-30T10:10:24.574Z,17.40
2018-09-30T10:12:55.282Z,17.70
2018-09-30T10:15:24.149Z,17.80
2018-09-30T10:17:53.027Z,17.70
2018-09-30T10:20:22.156Z,17.70
2018-09-30T10:22:51.222Z,18.00
2018-09-30T10:25:21.616Z,18.40
2018-09-30T10:27:52.305Z,18.70
2018-09-30T10:30:24.164Z,18.80
2018-09-30T10:32:53.654Z,19.00
2018-09-30T10:35:26.388Z,19.30
2018-09-30T10:37:56.132Z,19.50
2018-09-30T10:40:25.801Z,19.60
2018-09-30T10:42:55.231Z,19.70
2018-09-30T10:45:24.290Z,19.90
2018-09-30T10:47:54.182Z,20.00
2018-09-30T10:50:23.949Z,20.10
2018-09-30T10:52:53.064Z,20.10
2018-09-30T10:55:22.019Z,20.50
2018-09-30T10:57:52.678Z,20.40
2018-09-30T11:00:21.809Z,20.40
2018-09-30T11:02:52.622Z,20.50
2018-09-30T11:05:22.729Z,20.60
2018-09-30T11:07:51.635Z,20.70
2018-09-30T11:10:20.488Z,20.50
2018-09-30T11:12:51.311Z,19.50
2018-09-30T11:15:23.203Z,19.30
2018-09-30T11:17:53.157Z,19.20
2018-09-30T11:20:22.184Z,19.50
2018-09-30T11:22:51.549Z,20.00
2018-09-30T11:25:21.951Z,20.50
2018-09-30T11:27:51.802Z,19.90
2018-09-30T11:30:22.160Z,20.10
2018-09-30T11:32:51.580Z,20.10
2018-09-30T11:35:26.612Z,20.50
2018-09-30T11:37:57.697Z,20.50
2018-09-30T11:40:28.279Z,20.90
2018-09-30T11:42:57.220Z,21.10
2018-09-30T11:45:27.170Z,21.30
2018-09-30T11:47:57.247Z,21.40
2018-09-30T11:50:26.497Z,21.10
2018-09-30T11:52:55.532Z,21.20
2018-09-30T11:55:24.690Z,21.10
2018-09-30T11:57:53.567Z,20.90
2018-09-30T12:00:23.226Z,20.40
2018-09-30T12:02:53.774Z,20.90
2018-09-30T12:05:23.645Z,21.30
2018-09-30T12:07:54.543Z,21.60
2018-09-30T12:10:23.397Z,21.80
2018-09-30T12:12:52.473Z,21.90
2018-09-30T12:15:22.681Z,22.30
2018-09-30T12:17:53.290Z,22.80
2018-09-30T12:20:22.782Z,22.90
2018-09-30T12:22:52.266Z,23.00
2018-09-30T12:25:22.160Z,22.80
2018-09-30T12:27:51.707Z,23.50
2018-09-30T12:30:20.918Z,24.00
2018-09-30T12:32:51.263Z,24.20
2018-09-30T12:35:22.128Z,24.40
2018-09-30T12:37:52.755Z,23.70
2018-09-30T12:40:23.305Z,23.50
2018-09-30T12:42:54.300Z,23.40
2018-09-30T12:45:36.402Z,23.30
2018-09-30T12:48:08.316Z,22.50
2018-09-30T12:50:42.366Z,22.20
2018-09-30T12:53:12.394Z,22.10
2018-09-30T12:55:42.933Z,21.80
2018-09-30T12:58:21.690Z,21.80
2018-09-30T13:00:53.515Z,21.90
2018-09-30T13:03:23.177Z,22.50
2018-09-30T13:05:52.308Z,22.80
2018-09-30T13:08:25.416Z,23.30
2018-09-30T13:10:55.682Z,23.50
2018-09-30T13:13:25.201Z,23.80
2018-09-30T13:15:57.619Z,24.10
2018-09-30T13:18:27.287Z,24.10
2018-09-30T13:20:58.360Z,24.20
2018-09-30T13:23:29.187Z,24.50
2018-09-30T13:25:59.516Z,24.80
2018-09-30T13:28:31.265Z,25.10
2018-09-30T13:31:01.074Z,24.90
2018-09-30T13:33:32.673Z,24.70
2018-09-30T13:36:03.973Z,25.20
2018-09-30T13:38:34.731Z,25.30
2018-09-30T13:41:04.176Z,25.10
2018-09-30T13:43:33.605Z,25.30
2018-09-30T13:46:05.402Z,25.50
2018-09-30T13:48:35.720Z,24.60
2018-09-30T13:51:04.863Z,24.20
2018-09-30T13:53:34.222Z,24.00
2018-09-30T13:56:04.204Z,23.80
2018-09-30T13:58:36.480Z,22.90
2018-09-30T14:01:09.560Z,22.10
2018-09-30T14:03:41.203Z,21.80
2018-09-30T14:06:10.216Z,21.30
2018-09-30T14:08:39.226Z,20.80
2018-09-30T14:11:08.338Z,20.70
2018-09-30T14:13:38.100Z,20.60
2018-09-30T14:16:09.796Z,20.60
2018-09-30T14:18:40.754Z,20.60
2018-09-30T14:21:17.451Z,20.50
2018-09-30T14:23:47.245Z,20.30
2018-09-30T14:26:16.637Z,20.20
2018-09-30T14:28:45.863Z,20.10
2018-09-30T14:31:15.631Z,20.10
2018-09-30T14:33:44.826Z,20.00
2018-09-30T14:36:13.997Z,19.90
2018-09-30T14:38:45.273Z,19.60
2018-09-30T14:43:56.619Z,19.20
2018-09-30T14:46:25.946Z,19.20
2018-09-30T14:48:55.630Z,19.20
2018-09-30T14:51:25.401Z,19.10
2018-09-30T14:53:54.547Z,19.00
2018-09-30T14:56:24.307Z,19.00
2018-09-30T14:59:09.127Z,19.00
2018-09-30T15:01:38.680Z,18.80
2018-09-30T15:04:08.373Z,18.80
2018-09-30T15:06:37.698Z,18.70
2018-09-30T15:09:08.360Z,18.60
2018-09-30T15:11:40.660Z,18.60
2018-09-30T15:14:12.996Z,18.40
2018-09-30T15:16:44.549Z,18.40
2018-09-30T15:19:16.675Z,18.20
2018-09-30T15:21:45.673Z,18.10
2018-09-30T15:24:14.622Z,18.00
2018-09-30T15:26:44.961Z,17.90
2018-09-30T15:29:15.676Z,18.00
2018-09-30T15:31:44.657Z,17.80
2018-09-30T15:34:15.743Z,17.80
2018-09-30T15:36:45.487Z,17.80
2018-09-30T15:39:17.618Z,17.70
2018-09-30T15:41:50.753Z,17.50
2018-09-30T15:44:19.733Z,17.40
2018-09-30T15:46:48.592Z,17.30
2018-09-30T15:49:18.500Z,17.30
2018-09-30T15:51:47.683Z,17.20
2018-09-30T15:54:16.599Z,17.10
2018-09-30T15:56:45.687Z,17.00
2018-09-30T15:59:15.180Z,16.80
2018-09-30T16:01:44.231Z,16.70
2018-09-30T16:04:13.714Z,16.70
2018-09-30T16:06:42.750Z,16.70
2018-09-30T16:09:18.903Z,16.60
2018-09-30T16:11:49.336Z,16.60
2018-09-30T16:14:21.239Z,16.40
2018-09-30T16:16:51.671Z,16.30
2018-09-30T16:19:27.895Z,16.10
2018-09-30T16:24:33.255Z,15.80
2018-09-30T16:27:03.813Z,15.50
2018-09-30T16:29:34.345Z,15.30
2018-09-30T16:32:04.816Z,15.10
2018-09-30T16:34:33.914Z,14.90
2018-09-30T16:37:03.377Z,14.60
2018-09-30T16:39:33.638Z,14.40
2018-09-30T16:42:03.175Z,14.10
2018-09-30T16:44:32.425Z,13.90
2018-09-30T16:47:02.969Z,13.80
2018-09-30T16:49:32.680Z,13.60
2018-09-30T16:52:02.436Z,13.50
2018-09-30T16:54:32.812Z,13.40
2018-09-30T16:57:02.570Z,13.20
2018-09-30T16:59:34.090Z,12.80
2018-09-30T17:02:13.787Z,12.60
2018-09-30T17:04:45.491Z,12.50
2018-09-30T17:07:19.532Z,12.40
2018-09-30T17:09:56.168Z,12.30
2018-09-30T17:12:26.805Z,12.10
2018-09-30T17:14:56.623Z,11.90
2018-09-30T17:17:25.628Z,11.80
2018-09-30T17:20:03.171Z,11.70
2018-09-30T17:22:33.574Z,11.50
2018-09-30T17:25:05.370Z,11.50
2018-09-30T17:27:35.083Z,11.40
2018-09-30T17:30:11.286Z,11.30
2018-09-30T17:32:40.183Z,11.30
2018-09-30T17:35:11.753Z,11.10
2018-09-30T17:37:41.097Z,11.00
2018-09-30T17:40:10.215Z,11.00
2018-09-30T17:42:39.557Z,11.00
2018-09-30T17:45:08.669Z,10.80
2018-09-30T17:47:39.262Z,10.70
2018-09-30T17:50:11.854Z,10.70
2018-09-30T17:52:41.406Z,10.80
2018-09-30T17:55:14.521Z,10.50
2018-09-30T17:57:45.663Z,10.50
2018-09-30T18:00:16.214Z,10.40
2018-09-30T18:02:47.133Z,10.40
2018-09-30T18:10:17.057Z,10.40
2018-09-30T18:12:49.147Z,10.40
2018-09-30T18:15:19.981Z,10.00
2018-09-30T18:17:50.179Z,10.00
2018-09-30T18:20:27.436Z,10.10
2018-09-30T18:22:59.535Z,10.10
2018-09-30T18:25:31.518Z,10.10
2018-09-30T18:28:02.249Z,10.20
2018-09-30T18:30:35.279Z,10.00
2018-09-30T18:33:04.591Z,9.90
2018-09-30T18:35:39.622Z,9.90
2018-09-30T18:38:09.473Z,9.80
2018-09-30T18:40:46.705Z,9.60
2018-09-30T18:43:17.524Z,9.70
2018-09-30T18:45:47.568Z,9.60
2018-09-30T18:48:17.912Z,9.70
2018-09-30T18:50:48.379Z,9.70
2018-09-30T18:53:18.629Z,9.60
2018-09-30T18:55:48.669Z,9.60
2018-09-30T18:58:17.952Z,9.60
2018-09-30T19:00:47.171Z,9.70
2018-09-30T19:03:17.686Z,9.70
2018-09-30T19:06:02.431Z,9.60
2018-09-30T19:08:31.686Z,9.70
2018-09-30T19:11:01.927Z,9.50
2018-09-30T19:13:33.470Z,9.30
2018-09-30T19:16:04.251Z,9.20
2018-09-30T19:18:34.200Z,9.30
2018-09-30T19:21:05.612Z,9.40
2018-09-30T19:23:35.693Z,9.40
2018-09-30T19:26:12.688Z,9.30
2018-09-30T19:28:42.526Z,9.20
2018-09-30T19:31:13.216Z,9.20
2018-09-30T19:33:42.792Z,9.10
2018-09-30T19:36:12.200Z,9.10
2018-09-30T19:41:23.728Z,9.10
2018-09-30T19:43:54.200Z,9.00
2018-09-30T19:46:24.330Z,9.10
2018-09-30T19:48:54.182Z,9.20
2018-09-30T19:51:23.567Z,9.30
2018-09-30T19:54:04.854Z,9.30
2018-09-30T19:56:35.984Z,9.40
2018-09-30T19:59:06.894Z,9.40
2018-09-30T20:01:36.375Z,9.30
2018-09-30T20:04:14.914Z,9.30
2018-09-30T20:06:47.638Z,9.30
2018-09-30T20:09:20.200Z,9.40
2018-09-30T20:11:50.041Z,9.50
2018-09-30T20:14:20.738Z,9.30
2018-09-30T20:16:56.514Z,9.20
2018-09-30T20:19:26.530Z,9.20
2018-09-30T20:21:56.630Z,9.20
2018-09-30T20:24:29.285Z,9.30
2018-09-30T20:26:59.306Z,9.30
2018-09-30T20:29:28.161Z,9.40
2018-09-30T20:31:57.962Z,9.40
2018-09-30T20:34:28.182Z,9.20
2018-09-30T20:36:58.793Z,9.20
2018-09-30T20:39:30.834Z,9.30
2018-09-30T20:42:00.694Z,9.30
2018-09-30T20:44:30.755Z,9.30
2018-09-30T20:47:00.418Z,9.30
2018-09-30T20:49:33.237Z,9.20
2018-09-30T20:52:02.275Z,9.30
2018-09-30T20:54:32.288Z,9.20
2018-09-30T20:57:01.321Z,9.20
2018-09-30T20:59:31.832Z,9.10
2018-09-30T21:02:02.106Z,9.10
2018-09-30T21:04:31.664Z,9.10
2018-09-30T21:07:00.702Z,9.10
2018-09-30T21:09:29.649Z,9.10
2018-09-30T21:12:02.175Z,9.20
2018-09-30T21:14:31.162Z,9.20
2018-09-30T21:17:00.156Z,9.20
2018-09-30T21:19:29.518Z,9.20
2018-09-30T21:21:58.933Z,9.10
2018-09-30T21:24:30.529Z,9.00
2018-09-30T21:26:59.368Z,9.00
2018-09-30T21:29:29.197Z,9.00
2018-09-30T21:31:58.481Z,9.00
2018-09-30T21:34:28.955Z,9.00
2018-09-30T21:36:57.783Z,9.00
2018-09-30T21:39:27.168Z,9.00
2018-09-30T21:41:56.850Z,8.90
2018-09-30T21:44:26.700Z,8.90
2018-09-30T21:46:56.661Z,8.80
2018-09-30T21:49:26.159Z,8.80
2018-09-30T21:51:56.158Z,8.80
2018-09-30T21:54:26.602Z,8.60
2018-09-30T21:56:55.724Z,8.50
2018-09-30T21:59:24.654Z,8.40
2018-09-30T22:01:53.519Z,8.50
2018-09-30T22:04:22.585Z,8.50
2018-09-30T22:06:51.398Z,8.50
2018-09-30T22:09:21.146Z,8.50
2018-09-30T22:11:49.974Z,8.50
2018-09-30T22:14:23.445Z,8.40
2018-09-30T22:16:54.979Z,8.30
2018-09-30T22:19:23.857Z,8.20
2018-09-30T22:21:53.190Z,8.20
2018-09-30T22:24:21.978Z,8.10
2018-09-30T22:26:51.451Z,8.10
2018-09-30T22:29:21.085Z,8.00
2018-09-30T22:31:50.692Z,8.00
2018-09-30T22:34:21.666Z,7.90
2018-09-30T22:36:52.380Z,8.00
2018-09-30T22:39:21.259Z,8.20
2018-09-30T22:41:50.685Z,8.20
2018-09-30T22:44:19.486Z,8.10
2018-09-30T22:46:51.660Z,8.20
2018-09-30T22:49:20.623Z,8.20
2018-09-30T22:51:50.687Z,8.20
2018-09-30T22:54:19.694Z,8.20
2018-09-30T22:56:49.075Z,8.20
2018-09-30T22:59:18.821Z,8.20
2018-09-30T23:01:47.676Z,8.10
2018-09-30T23:04:16.459Z,8.00
2018-09-30T23:06:46.356Z,7.90
2018-09-30T23:09:15.426Z,8.00
2018-09-30T23:11:44.518Z,8.00
2018-09-30T23:14:14.395Z,8.00
2018-09-30T23:16:43.222Z,8.00
2018-09-30T23:19:12.073Z,8.00
2018-09-30T23:21:41.504Z,8.00
2018-09-30T23:24:11.055Z,8.00
2018-09-30T23:26:39.857Z,7.90
2018-09-30T23:29:09.956Z,7.90
2018-09-30T23:31:39.248Z,7.80
2018-09-30T23:34:08.632Z,7.80
2018-09-30T23:36:37.506Z,7.80
2018-09-30T23:39:08.526Z,7.70
2018-09-30T23:41:37.653Z,7.70
2018-09-30T23:44:06.561Z,7.60
2018-09-30T23:46:35.415Z,7.50
2018-09-30T23:49:04.224Z,7.50
2018-09-30T23:51:34.614Z,7.20
2018-09-30T23:54:03.414Z,7.20
2018-09-30T23:56:33.388Z,7.10
2018-09-30T23:59:02.252Z,7.00
